createdAt,value
2019-02-02T00:12:44.778Z,1.48
2019-02-02T00:18:08.088Z,1.45
2019-02-02T00:23:12.469Z,1.40
2019-02-02T00:34:25.070Z,1.45
2019-02-02T00:39:29.361Z,1.33
2019-02-02T00:44:45.191Z,1.44
2019-02-02T00:54:59.273Z,1.42
2019-02-02T01:00:22.591Z,1.44
2019-02-02T01:05:27.085Z,1.47
2019-02-02T01:11:11.608Z,1.44
2019-02-02T01:16:15.910Z,1.51
2019-02-02T01:21:20.142Z,1.54
2019-02-02T01:26:43.445Z,1.59
2019-02-02T01:32:06.995Z,1.61
2019-02-02T01:37:30.303Z,1.60
2019-02-02T01:42:34.584Z,1.54
2019-02-02T01:47:58.758Z,1.59
2019-02-02T01:53:03.012Z,1.62
2019-02-02T02:08:46.412Z,1.66
2019-02-02T02:13:50.646Z,1.69
2019-02-02T02:29:35.170Z,1.82
2019-02-02T02:34:39.435Z,1.82
2019-02-02T02:39:43.678Z,1.85
2019-02-02T02:45:07.329Z,1.87
2019-02-02T03:00:54.768Z,1.92
2019-02-02T03:05:59.009Z,1.93
2019-02-02T03:11:42.593Z,1.92
2019-02-02T03:27:06.419Z,1.75
2019-02-02T03:32:10.642Z,1.72
2019-02-02T03:37:33.944Z,1.64
2019-02-02T03:43:17.528Z,1.68
2019-02-02T03:48:21.771Z,1.62
2019-02-02T03:53:41.018Z,1.61
2019-02-02T03:58:44.085Z,1.62
2019-02-02T04:04:27.774Z,1.61
2019-02-02T04:09:51.074Z,1.65
2019-02-02T04:14:55.305Z,1.62
2019-02-02T04:30:58.674Z,1.54
2019-02-02T04:36:02.999Z,1.49
2019-02-02T04:51:46.558Z,1.57
2019-02-02T04:56:50.838Z,1.61
2019-02-02T05:01:55.175Z,1.60
2019-02-02T05:06:59.404Z,1.62
2019-02-02T05:17:32.589Z,1.58
2019-02-02T05:22:36.815Z,1.59
2019-02-02T05:27:41.084Z,1.61
2019-02-02T05:32:45.431Z,1.59
2019-02-02T05:53:18.598Z,1.57
2019-02-02T06:08:42.566Z,1.68
2019-02-02T06:13:46.803Z,1.73
2019-02-02T06:19:10.111Z,1.73
2019-02-02T06:29:24.521Z,1.59
2019-02-02T06:34:47.818Z,1.73
2019-02-02T06:39:52.053Z,1.70
2019-02-02T06:44:56.347Z,1.71
2019-02-02T07:00:41.019Z,1.85
2019-02-02T07:05:45.321Z,1.76
2019-02-02T07:15:59.329Z,1.65
2019-02-02T07:26:32.200Z,1.64
2019-02-02T07:31:36.429Z,1.62
2019-02-02T07:47:00.245Z,1.56
2019-02-02T07:52:23.566Z,1.52
2019-02-02T08:02:38.121Z,1.55
2019-02-02T08:07:42.357Z,1.63
2019-02-02T08:33:45.412Z,1.97
2019-02-02T08:38:50.793Z,2.06
2019-02-02T08:43:55.093Z,2.10
2019-02-02T08:48:59.345Z,2.19
2019-02-02T08:59:15.394Z,2.21
2019-02-02T09:04:31.773Z,2.27
2019-02-02T09:09:35.989Z,2.24
2019-02-02T09:14:40.222Z,2.20
2019-02-02T09:25:53.368Z,2.37
2019-02-02T09:30:57.638Z,2.39
2019-02-02T09:36:01.872Z,2.38
2019-02-02T09:41:25.182Z,2.37
2019-02-02T09:46:29.424Z,2.36
2019-02-02T09:51:52.723Z,2.47
2019-02-02T10:02:27.161Z,2.62
2019-02-02T10:07:45.580Z,2.78
2019-02-02T10:12:49.859Z,2.66
2019-02-02T10:17:54.084Z,2.67
2019-02-02T10:23:17.467Z,2.74
2019-02-02T10:28:21.711Z,2.89
2019-02-02T10:33:45.006Z,2.98
2019-02-02T10:49:28.816Z,2.96
2019-02-02T11:04:53.558Z,2.85
2019-02-02T11:10:10.333Z,2.84
2019-02-02T11:15:54.723Z,2.83
2019-02-02T11:20:58.987Z,2.82
2019-02-02T11:31:32.158Z,2.74
2019-02-02T11:46:56.982Z,2.80
2019-02-02T11:52:01.304Z,2.85
2019-02-02T11:57:05.717Z,2.85
2019-02-02T12:02:14.629Z,2.77
2019-02-02T12:12:37.374Z,2.94
2019-02-02T12:22:51.407Z,2.97
2019-02-02T12:33:25.997Z,3.03
2019-02-02T12:38:49.775Z,3.08
2019-02-02T12:49:04.103Z,3.00
2019-02-02T12:54:08.334Z,3.04
2019-02-02T13:04:21.901Z,3.26
2019-02-02T13:14:47.282Z,3.45
2019-02-02T13:25:01.135Z,3.64
2019-02-02T13:30:46.134Z,3.61
2019-02-02T13:36:30.171Z,3.66
2019-02-02T13:41:34.411Z,3.64
2019-02-02T13:46:58.023Z,3.70
2019-02-02T13:52:02.252Z,3.74
2019-02-02T14:02:35.899Z,3.72
2019-02-02T14:07:40.138Z,3.69
2019-02-02T14:12:44.709Z,3.66
2019-02-02T14:18:01.066Z,3.60
2019-02-02T14:23:44.805Z,3.65
2019-02-02T14:28:49.384Z,3.61
2019-02-02T14:39:22.724Z,3.63
2019-02-02T14:56:05.551Z,3.78
2019-02-02T15:01:28.847Z,3.84
2019-02-02T15:06:33.123Z,3.77
2019-02-02T15:17:06.489Z,3.81
2019-02-02T15:22:22.848Z,3.75
2019-02-02T15:27:27.146Z,3.67
2019-02-02T15:32:31.441Z,3.62
2019-02-02T15:37:36.110Z,3.62
2019-02-02T15:42:59.490Z,3.64
2019-02-02T15:48:23.144Z,3.63
2019-02-02T15:53:27.377Z,3.65
2019-02-02T15:58:52.345Z,3.59
2019-02-02T16:04:36.450Z,3.51
2019-02-02T16:09:40.718Z,3.44
2019-02-02T16:15:04.450Z,3.37
2019-02-02T16:20:49.934Z,3.37
2019-02-02T16:25:54.253Z,3.30
2019-02-02T16:31:17.585Z,3.27
2019-02-02T16:36:40.891Z,3.25
2019-02-02T16:42:04.285Z,3.23
2019-02-02T16:47:27.630Z,3.19
2019-02-02T16:58:41.457Z,3.15
2019-02-02T17:14:44.313Z,3.04
2019-02-02T17:20:07.672Z,2.98
2019-02-02T17:25:52.156Z,2.98
2019-02-02T17:31:15.453Z,2.94
2019-02-02T17:42:07.839Z,2.90
2019-02-02T17:47:12.067Z,2.85
2019-02-02T18:03:07.037Z,2.75
2019-02-02T18:08:11.299Z,2.70
2019-02-02T18:13:15.539Z,2.67
2019-02-02T18:24:08.344Z,2.55
2019-02-02T18:29:12.581Z,2.57
2019-02-02T18:34:16.863Z,2.52
2019-02-02T18:39:21.105Z,2.49
2019-02-02T18:44:44.410Z,2.47
2019-02-02T18:56:24.028Z,2.53
2019-02-02T19:06:59.350Z,2.41
2019-02-02T19:12:03.923Z,2.40
2019-02-02T19:17:10.538Z,2.37
2019-02-02T19:22:14.787Z,2.36
2019-02-02T19:32:47.411Z,2.22
2019-02-02T19:38:10.895Z,2.22
2019-02-02T19:48:25.152Z,2.12
2019-02-02T19:53:31.833Z,2.11
2019-02-02T19:58:35.458Z,2.04
2019-02-02T20:03:39.745Z,1.95
2019-02-02T20:08:43.983Z,1.98
2019-02-02T20:18:58.367Z,1.94
2019-02-02T20:29:12.470Z,1.81
2019-02-02T20:34:16.706Z,1.76
2019-02-02T20:44:31.027Z,1.64
2019-02-02T20:49:54.423Z,1.60
2019-02-02T21:00:50.346Z,1.48
2019-02-02T21:06:14.189Z,1.47
2019-02-02T21:16:47.896Z,1.36
2019-02-02T21:27:02.097Z,1.32
2019-02-02T21:32:06.706Z,1.32
2019-02-02T21:37:11.250Z,1.30
2019-02-02T21:47:44.916Z,1.28
2019-02-02T21:53:28.581Z,1.26
2019-02-02T21:58:52.150Z,1.29
2019-02-02T22:03:56.818Z,1.27
2019-02-02T22:09:01.122Z,1.35
2019-02-02T22:14:44.784Z,1.32
2019-02-02T22:25:18.739Z,1.28
2019-02-02T22:31:03.437Z,1.29
2019-02-02T22:36:07.715Z,1.23
2019-02-02T22:46:40.996Z,1.24
2019-02-02T22:51:45.295Z,1.25
2019-02-02T22:57:08.597Z,1.21
2019-02-02T23:08:21.291Z,1.19
2019-02-02T23:14:03.767Z,1.16
2019-02-02T23:19:09.730Z,1.18
2019-02-02T23:24:33.039Z,1.19
2019-02-02T23:29:56.385Z,1.19
2019-02-02T23:45:38.918Z,1.26
2019-02-02T23:50:43.163Z,1.30
2019-02-02T23:55:47.414Z,1.32
